MSC Levina — 3FJR8 — position and weather

sailwx.info

Track history (hours):
 
Tides and Currents Weather Stations Pressure Air Temp Water Temp Dewpoint Dewpoint Depression Visibility Wind Speed Wind Dir Waves Ship Positions

MSC Levina

Last reported at 2016-Jul-01 12:33 UTC. Time now 2016-Jul-01 13:31 UTC.
Position N 01°16' E 103°46'.

Length 227.6 m; beam 32.2 m; draft 12.1 m.

Type: Cargo ship. MMSI: 355609000.

Date/timePositionNaut miles runAvg speedWind from/ knotsBaromVisibWave heightAir tempDewpointWater temp
2016-Jul-01 12:33N 01°16' E 103°46'0 0.0
2016-Jul-01 11:30N 01°16' E 103°46'0 0.0
2016-Jul-01 10:33N 01°16' E 103°46'0 0.1
2016-Jul-01 09:33N 01°16' E 103°46'0 0.1
2016-Jul-01 08:33N 01°16' E 103°46'0 0.1
2016-Jul-01 07:21N 01°16' E 103°46'0 0.1
2016-Jul-01 06:33N 01°16' E 103°46'6 5.6
2016-Jul-01 05:32N 01°12' E 103°50'5 1.0
2016-Jul-01 00:15N 01°16' E 103°54'0 0.0
2016-Jun-30 23:33N 01°16' E 103°54'0 0.0
2016-Jun-30 22:33N 01°16' E 103°54'0 0.0
2016-Jun-30 21:21N 01°16' E 103°54'0 0.0
2016-Jun-30 20:33N 01°16' E 103°54'0 0.1
2016-Jun-30 19:33N 01°16' E 103°54'0 0.0
2016-Jun-30 18:09N 01°16' E 103°54'0 0.0
2016-Jun-30 17:21N 01°16' E 103°54'0 0.0
2016-Jun-30 16:27N 01°16' E 103°54'0 0.1
2016-Jun-30 15:15N 01°16' E 103°54'0 0.0
2016-Jun-30 14:33N 01°16' E 103°54'0 0.0
2016-Jun-30 11:33N 01°16' E 103°54'0 0.0
2016-Jun-30 10:09N 01°16' E 103°54'0 0.0
2016-Jun-30 09:33N 01°16' E 103°54'0 0.0
2016-Jun-30 06:21N 01°16' E 103°54'0 0.0
2016-Jun-30 04:33N 01°16' E 103°54'0 0.0
2016-Jun-30 03:33N 01°16' E 103°54'0 0.1
2016-Jun-30 02:33N 01°16' E 103°54'0 0.0
2016-Jun-30 01:27N 01°16' E 103°54'0 0.0
2016-Jun-30 00:09N 01°16' E 103°54'0 0.0
2016-Jun-29 23:15N 01°16' E 103°54'0 0.0
2016-Jun-29 22:33N 01°16' E 103°54'0 0.0
2016-Jun-29 21:21N 01°16' E 103°54'0 0.0
2016-Jun-29 20:27N 01°16' E 103°54'0 0.0
2016-Jun-29 19:27N 01°16' E 103°54'0 0.1
2016-Jun-29 18:27N 01°16' E 103°54'0 0.1
2016-Jun-29 17:33N 01°16' E 103°54'0 0.0
2016-Jun-29 16:33N 01°16' E 103°54'0 0.0
2016-Jun-29 14:33N 01°16' E 103°54'0 0.0
2016-Jun-29 12:33N 01°16' E 103°54'0 0.0
2016-Jun-29 11:27N 01°16' E 103°54'0 0.1
2016-Jun-29 10:33N 01°16' E 103°54'0 0.0
2016-Jun-29 08:33N 01°16' E 103°54'0 0.0
2016-Jun-29 07:27N 01°16' E 103°54'0 0.1
2016-Jun-29 06:21N 01°16' E 103°54'0 0.0
2016-Jun-29 05:27N 01°16' E 103°54'0 0.0
2016-Jun-29 04:33N 01°16' E 103°54'0 0.0
2016-Jun-29 03:21N 01°16' E 103°54'0 0.0
2016-Jun-29 01:33N 01°16' E 103°54'0 0.0
2016-Jun-28 22:27N 01°16' E 103°54'0 0.0
2016-Jun-28 21:33N 01°16' E 103°54'0 0.0
2016-Jun-28 20:33N 01°16' E 103°54'0 0.0
2016-Jun-28 19:17N 01°16' E 103°54'0 0.0
2016-Jun-28 18:33N 01°16' E 103°54'0 0.0
2016-Jun-28 17:29N 01°16' E 103°54'0 0.0
2016-Jun-28 16:20N 01°16' E 103°54'0 0.1
2016-Jun-28 15:21N 01°16' E 103°54'0 0.0
2016-Jun-28 14:30N 01°16' E 103°54'0 0.0
2016-Jun-28 12:33N 01°16' E 103°54'0 0.0
2016-Jun-28 11:08N 01°16' E 103°54'0 0.0
2016-Jun-28 10:33N 01°16' E 103°54'0 0.1
2016-Jun-28 09:24N 01°16' E 103°54'0 0.0
2016-Jun-28 08:21N 01°16' E 103°54'0 0.0
2016-Jun-28 03:24N 01°16' E 103°54'0 0.0
2016-Jun-27 21:33N 01°16' E 103°54'0 0.0
2016-Jun-27 20:23N 01°16' E 103°54'0 0.0
2016-Jun-27 18:26N 01°16' E 103°54'0 0.0
2016-Jun-27 10:33N 01°16' E 103°54'0 0.0
2016-Jun-27 08:14N 01°16' E 103°54'0 0.0
2016-Jun-27 06:20N 01°16' E 103°54'0 0.0
2016-Jun-27 04:29N 01°16' E 103°54'0 0.0
2016-Jun-27 02:26N 01°16' E 103°54'0 0.0
2016-Jun-27 01:20N 01°16' E 103°54'0 0.0
2016-Jun-26 23:06N 01°16' E 103°54'0 0.0
2016-Jun-26 22:32N 01°16' E 103°54'0 0.0
2016-Jun-26 21:32N 01°16' E 103°54'0 0.0
2016-Jun-26 20:08N 01°16' E 103°54'0 0.1
2016-Jun-26 19:33N 01°16' E 103°54'2 2.4
2016-Jun-26 18:33N 01°14' E 103°54'8 7.9
2016-Jun-26 17:33N 01°16' E 103°46'0 0.0
2016-Jun-26 16:33N 01°16' E 103°46'0 0.0
2016-Jun-26 15:17N 01°16' E 103°46'0 0.0
2016-Jun-26 14:11N 01°16' E 103°46'0 0.0
2016-Jun-26 13:32N 01°16' E 103°46'0 0.1
2016-Jun-26 12:29N 01°16' E 103°46'0 0.1
2016-Jun-26 11:23N 01°16' E 103°46'0 0.1
2016-Jun-26 10:23N 01°16' E 103°46'0 0.0
2016-Jun-26 08:11N 01°16' E 103°46'0 0.0
2016-Jun-26 07:29N 01°16' E 103°46'0 0.0
2016-Jun-26 05:29N 01°16' E 103°46'0 0.1
2016-Jun-26 04:23N 01°16' E 103°46'0 0.0
2016-Jun-26 03:29N 01°16' E 103°46'0 0.0
2016-Jun-26 02:29N 01°16' E 103°46'0 0.1
2016-Jun-26 00:33N 01°16' E 103°46'9 8.8
2016-Jun-25 23:33N 01°12' E 103°38'5 4.7
2016-Jun-25 22:24N 01°10' E 103°33'74 1.8
2016-Jun-24 04:33N 01°46' E 102°29'2019.8
2016-Jun-24 03:32N 01°57' E 102°11'241 5.9
2016-Jun-22 10:19N 05°20' E 100°01'2110.9
2016-Jun-22 08:24N 05°30' E 100°20'5 5.5
2016-Jun-22 07:28N 05°25' E 100°22'0 0.0
2016-Jun-22 06:28N 05°25' E 100°22'0 0.0
2016-Jun-22 05:28N 05°25' E 100°22'0 0.0
2016-Jun-22 04:28N 05°25' E 100°22'0 0.0
2016-Jun-22 03:28N 05°25' E 100°22'0 0.0
2016-Jun-22 02:28N 05°25' E 100°22'0 0.0
2016-Jun-22 01:28N 05°25' E 100°22'0 0.0
2016-Jun-22 00:28N 05°25' E 100°22'0 0.0
2016-Jun-21 23:28N 05°25' E 100°22'0 0.0
2016-Jun-21 22:28N 05°25' E 100°22'0 0.0
2016-Jun-21 21:28N 05°25' E 100°22'0 0.0
2016-Jun-21 20:28N 05°25' E 100°22'0 0.0
2016-Jun-21 19:28N 05°25' E 100°22'0 0.0
2016-Jun-21 18:28N 05°25' E 100°22'0 0.0
2016-Jun-21 17:28N 05°25' E 100°22'0 0.0
2016-Jun-21 16:22N 05°25' E 100°22'0 0.0
2016-Jun-21 15:28N 05°25' E 100°22'0 0.0
2016-Jun-21 13:28N 05°25' E 100°22'  
Track history (hours):
 
Tides and Currents Weather Stations Pressure Air Temp Water Temp Dewpoint Dewpoint Depression Visibility Wind Speed Wind Dir Waves Ship Positions

MSC Levina

Last reported at 2016-Jul-01 12:33 UTC. Time now 2016-Jul-01 13:31 UTC.
Position N 01°16' E 103°46'.

Length 227.6 m; beam 32.2 m; draft 12.1 m.

Type: Cargo ship. MMSI: 355609000.

Date/timePositionNaut miles runAvg speedWind from/ knotsBaromVisibWave heightAir tempDewpointWater temp
2016-Jul-01 12:33N 01°16' E 103°46'0 0.0
2016-Jul-01 11:30N 01°16' E 103°46'0 0.0
2016-Jul-01 10:33N 01°16' E 103°46'0 0.1
2016-Jul-01 09:33N 01°16' E 103°46'0 0.1
2016-Jul-01 08:33N 01°16' E 103°46'0 0.1
2016-Jul-01 07:21N 01°16' E 103°46'0 0.1
2016-Jul-01 06:33N 01°16' E 103°46'6 5.6
2016-Jul-01 05:32N 01°12' E 103°50'5 1.0
2016-Jul-01 00:15N 01°16' E 103°54'0 0.0
2016-Jun-30 23:33N 01°16' E 103°54'0 0.0
2016-Jun-30 22:33N 01°16' E 103°54'0 0.0
2016-Jun-30 21:21N 01°16' E 103°54'0 0.0
2016-Jun-30 20:33N 01°16' E 103°54'0 0.1
2016-Jun-30 19:33N 01°16' E 103°54'0 0.0
2016-Jun-30 18:09N 01°16' E 103°54'0 0.0
2016-Jun-30 17:21N 01°16' E 103°54'0 0.0
2016-Jun-30 16:27N 01°16' E 103°54'0 0.1
2016-Jun-30 15:15N 01°16' E 103°54'0 0.0
2016-Jun-30 14:33N 01°16' E 103°54'0 0.0
2016-Jun-30 11:33N 01°16' E 103°54'0 0.0
2016-Jun-30 10:09N 01°16' E 103°54'0 0.0
2016-Jun-30 09:33N 01°16' E 103°54'0 0.0
2016-Jun-30 06:21N 01°16' E 103°54'0 0.0
2016-Jun-30 04:33N 01°16' E 103°54'0 0.0
2016-Jun-30 03:33N 01°16' E 103°54'0 0.1
2016-Jun-30 02:33N 01°16' E 103°54'0 0.0
2016-Jun-30 01:27N 01°16' E 103°54'0 0.0
2016-Jun-30 00:09N 01°16' E 103°54'0 0.0
2016-Jun-29 23:15N 01°16' E 103°54'0 0.0
2016-Jun-29 22:33N 01°16' E 103°54'0 0.0
2016-Jun-29 21:21N 01°16' E 103°54'0 0.0
2016-Jun-29 20:27N 01°16' E 103°54'0 0.0
2016-Jun-29 19:27N 01°16' E 103°54'0 0.1
2016-Jun-29 18:27N 01°16' E 103°54'0 0.1
2016-Jun-29 17:33N 01°16' E 103°54'0 0.0
2016-Jun-29 16:33N 01°16' E 103°54'0 0.0
2016-Jun-29 14:33N 01°16' E 103°54'0 0.0
2016-Jun-29 12:33N 01°16' E 103°54'0 0.0
2016-Jun-29 11:27N 01°16' E 103°54'0 0.1
2016-Jun-29 10:33N 01°16' E 103°54'0 0.0
2016-Jun-29 08:33N 01°16' E 103°54'0 0.0
2016-Jun-29 07:27N 01°16' E 103°54'0 0.1
2016-Jun-29 06:21N 01°16' E 103°54'0 0.0
2016-Jun-29 05:27N 01°16' E 103°54'0 0.0
2016-Jun-29 04:33N 01°16' E 103°54'0 0.0
2016-Jun-29 03:21N 01°16' E 103°54'0 0.0
2016-Jun-29 01:33N 01°16' E 103°54'0 0.0
2016-Jun-28 22:27N 01°16' E 103°54'0 0.0
2016-Jun-28 21:33N 01°16' E 103°54'0 0.0
2016-Jun-28 20:33N 01°16' E 103°54'0 0.0
2016-Jun-28 19:17N 01°16' E 103°54'0 0.0
2016-Jun-28 18:33N 01°16' E 103°54'0 0.0
2016-Jun-28 17:29N 01°16' E 103°54'0 0.0
2016-Jun-28 16:20N 01°16' E 103°54'0 0.1
2016-Jun-28 15:21N 01°16' E 103°54'0 0.0
2016-Jun-28 14:30N 01°16' E 103°54'0 0.0
2016-Jun-28 12:33N 01°16' E 103°54'0 0.0
2016-Jun-28 11:08N 01°16' E 103°54'0 0.0
2016-Jun-28 10:33N 01°16' E 103°54'0 0.1
2016-Jun-28 09:24N 01°16' E 103°54'0 0.0
2016-Jun-28 08:21N 01°16' E 103°54'0 0.0
2016-Jun-28 03:24N 01°16' E 103°54'0 0.0
2016-Jun-27 21:33N 01°16' E 103°54'0 0.0
2016-Jun-27 20:23N 01°16' E 103°54'0 0.0
2016-Jun-27 18:26N 01°16' E 103°54'0 0.0
2016-Jun-27 10:33N 01°16' E 103°54'0 0.0
2016-Jun-27 08:14N 01°16' E 103°54'0 0.0
2016-Jun-27 06:20N 01°16' E 103°54'0 0.0
2016-Jun-27 04:29N 01°16' E 103°54'0 0.0
2016-Jun-27 02:26N 01°16' E 103°54'0 0.0
2016-Jun-27 01:20N 01°16' E 103°54'0 0.0
2016-Jun-26 23:06N 01°16' E 103°54'0 0.0
2016-Jun-26 22:32N 01°16' E 103°54'0 0.0
2016-Jun-26 21:32N 01°16' E 103°54'0 0.0
2016-Jun-26 20:08N 01°16' E 103°54'0 0.1
2016-Jun-26 19:33N 01°16' E 103°54'2 2.4
2016-Jun-26 18:33N 01°14' E 103°54'8 7.9
2016-Jun-26 17:33N 01°16' E 103°46'0 0.0
2016-Jun-26 16:33N 01°16' E 103°46'0 0.0
2016-Jun-26 15:17N 01°16' E 103°46'0 0.0
2016-Jun-26 14:11N 01°16' E 103°46'0 0.0
2016-Jun-26 13:32N 01°16' E 103°46'0 0.1
2016-Jun-26 12:29N 01°16' E 103°46'0 0.1
2016-Jun-26 11:23N 01°16' E 103°46'0 0.1
2016-Jun-26 10:23N 01°16' E 103°46'0 0.0
2016-Jun-26 08:11N 01°16' E 103°46'0 0.0
2016-Jun-26 07:29N 01°16' E 103°46'0 0.0
2016-Jun-26 05:29N 01°16' E 103°46'0 0.1
2016-Jun-26 04:23N 01°16' E 103°46'0 0.0
2016-Jun-26 03:29N 01°16' E 103°46'0 0.0
2016-Jun-26 02:29N 01°16' E 103°46'0 0.1
2016-Jun-26 00:33N 01°16' E 103°46'9 8.8
2016-Jun-25 23:33N 01°12' E 103°38'5 4.7
2016-Jun-25 22:24N 01°10' E 103°33'74 1.8
2016-Jun-24 04:33N 01°46' E 102°29'2019.8
2016-Jun-24 03:32N 01°57' E 102°11'241 5.9
2016-Jun-22 10:19N 05°20' E 100°01'2110.9
2016-Jun-22 08:24N 05°30' E 100°20'5 5.5
2016-Jun-22 07:28N 05°25' E 100°22'0 0.0
2016-Jun-22 06:28N 05°25' E 100°22'0 0.0
2016-Jun-22 05:28N 05°25' E 100°22'0 0.0
2016-Jun-22 04:28N 05°25' E 100°22'0 0.0
2016-Jun-22 03:28N 05°25' E 100°22'0 0.0
2016-Jun-22 02:28N 05°25' E 100°22'0 0.0
2016-Jun-22 01:28N 05°25' E 100°22'0 0.0
2016-Jun-22 00:28N 05°25' E 100°22'0 0.0
2016-Jun-21 23:28N 05°25' E 100°22'0 0.0
2016-Jun-21 22:28N 05°25' E 100°22'0 0.0
2016-Jun-21 21:28N 05°25' E 100°22'0 0.0
2016-Jun-21 20:28N 05°25' E 100°22'0 0.0
2016-Jun-21 19:28N 05°25' E 100°22'0 0.0
2016-Jun-21 18:28N 05°25' E 100°22'0 0.0
2016-Jun-21 17:28N 05°25' E 100°22'0 0.0
2016-Jun-21 16:22N 05°25' E 100°22'0 0.0
2016-Jun-21 15:28N 05°25' E 100°22'0 0.0
2016-Jun-21 13:28N 05°25' E 100°22'  

Dump ship's entire track history